sensor_id;sensor_type;location;lat;lon;timestamp;P1;durP1;ratioP1;P2;durP2;ratioP2
59846;SDS011;45728;48.788;2.302;2024-01-07T00:01:29;4.95;;;3.50;;
59846;SDS011;45728;48.788;2.302;2024-01-07T00:03:55;5.20;;;3.60;;
59846;SDS011;45728;48.788;2.302;2024-01-07T00:06:21;5.00;;;2.17;;
59846;SDS011;45728;48.788;2.302;2024-01-07T00:08:47;5.82;;;1.88;;
59846;SDS011;45728;48.788;2.302;2024-01-07T00:11:13;3.92;;;1.52;;
59846;SDS011;45728;48.788;2.302;2024-01-07T00:13:39;8.20;;;3.63;;
59846;SDS011;45728;48.788;2.302;2024-01-07T00:16:05;5.60;;;3.35;;
59846;SDS011;45728;48.788;2.302;2024-01-07T00:18:31;8.48;;;3.25;;
59846;SDS011;45728;48.788;2.302;2024-01-07T00:20:57;17.23;;;2.05;;
59846;SDS011;45728;48.788;2.302;2024-01-07T00:23:24;5.20;;;3.10;;
59846;SDS011;45728;48.788;2.302;2024-01-07T00:25:50;3.75;;;1.48;;
59846;SDS011;45728;48.788;2.302;2024-01-07T00:28:16;8.82;;;3.42;;
59846;SDS011;45728;48.788;2.302;2024-01-07T00:30:42;11.38;;;3.55;;
59846;SDS011;45728;48.788;2.302;2024-01-07T00:33:08;6.20;;;3.03;;
59846;SDS011;45728;48.788;2.302;2024-01-07T00:35:34;5.57;;;2.38;;
59846;SDS011;45728;48.788;2.302;2024-01-07T00:38:00;2.75;;;1.20;;
59846;SDS011;45728;48.788;2.302;2024-01-07T00:40:26;6.70;;;3.03;;
59846;SDS011;45728;48.788;2.302;2024-01-07T00:42:52;6.35;;;3.30;;
59846;SDS011;45728;48.788;2.302;2024-01-07T00:45:18;7.90;;;3.22;;
59846;SDS011;45728;48.788;2.302;2024-01-07T00:47:44;5.47;;;3.00;;
59846;SDS011;45728;48.788;2.302;2024-01-07T00:50:10;5.68;;;1.17;;
59846;SDS011;45728;48.788;2.302;2024-01-07T00:52:36;8.40;;;2.95;;
59846;SDS011;45728;48.788;2.302;2024-01-07T00:55:03;5.82;;;2.80;;
59846;SDS011;45728;48.788;2.302;2024-01-07T00:57:31;14.73;;;3.53;;
59846;SDS011;45728;48.788;2.302;2024-01-07T00:59:58;9.02;;;2.83;;
59846;SDS011;45728;48.788;2.302;2024-01-07T01:02:25;7.10;;;3.10;;
59846;SDS011;45728;48.788;2.302;2024-01-07T01:04:51;5.07;;;1.40;;
59846;SDS011;45728;48.788;2.302;2024-01-07T01:07:17;5.82;;;2.60;;
59846;SDS011;45728;48.788;2.302;2024-01-07T01:09:43;2.08;;;1.25;;
59846;SDS011;45728;48.788;2.302;2024-01-07T01:12:09;3.67;;;1.08;;
59846;SDS011;45728;48.788;2.302;2024-01-07T01:14:35;6.32;;;2.67;;
59846;SDS011;45728;48.788;2.302;2024-01-07T01:17:01;6.10;;;3.25;;
59846;SDS011;45728;48.788;2.302;2024-01-07T01:19:27;4.32;;;1.95;;
59846;SDS011;45728;48.788;2.302;2024-01-07T01:21:53;2.08;;;1.05;;
59846;SDS011;45728;48.788;2.302;2024-01-07T01:24:19;7.22;;;2.30;;
59846;SDS011;45728;48.788;2.302;2024-01-07T01:26:45;4.50;;;1.13;;
59846;SDS011;45728;48.788;2.302;2024-01-07T01:29:11;3.60;;;1.20;;
59846;SDS011;45728;48.788;2.302;2024-01-07T01:31:37;7.80;;;2.83;;
59846;SDS011;45728;48.788;2.302;2024-01-07T01:34:04;4.13;;;2.60;;
59846;SDS011;45728;48.788;2.302;2024-01-07T01:36:32;2.80;;;1.17;;
59846;SDS011;45728;48.788;2.302;2024-01-07T01:38:58;1.35;;;0.65;;
59846;SDS011;45728;48.788;2.302;2024-01-07T01:41:25;2.22;;;1.15;;
59846;SDS011;45728;48.788;2.302;2024-01-07T01:43:51;8.90;;;2.45;;
59846;SDS011;45728;48.788;2.302;2024-01-07T01:46:17;4.55;;;1.33;;
59846;SDS011;45728;48.788;2.302;2024-01-07T01:48:43;1.98;;;1.30;;
59846;SDS011;45728;48.788;2.302;2024-01-07T01:51:09;4.88;;;2.35;;
59846;SDS011;45728;48.788;2.302;2024-01-07T01:53:36;6.80;;;2.30;;
59846;SDS011;45728;48.788;2.302;2024-01-07T01:56:03;4.50;;;1.33;;
59846;SDS011;45728;48.788;2.302;2024-01-07T01:58:30;3.63;;;0.57;;
59846;SDS011;45728;48.788;2.302;2024-01-07T02:00:58;6.50;;;2.50;;
59846;SDS011;45728;48.788;2.302;2024-01-07T02:03:24;7.97;;;2.38;;
59846;SDS011;45728;48.788;2.302;2024-01-07T02:05:51;10.00;;;2.65;;
59846;SDS011;45728;48.788;2.302;2024-01-07T02:08:18;1.67;;;0.98;;
59846;SDS011;45728;48.788;2.302;2024-01-07T02:10:45;2.65;;;0.80;;
59846;SDS011;45728;48.788;2.302;2024-01-07T02:13:11;3.92;;;1.35;;
59846;SDS011;45728;48.788;2.302;2024-01-07T02:15:37;7.05;;;2.70;;
59846;SDS011;45728;48.788;2.302;2024-01-07T02:18:03;1.50;;;0.90;;
59846;SDS011;45728;48.788;2.302;2024-01-07T02:20:29;9.02;;;2.55;;
59846;SDS011;45728;48.788;2.302;2024-01-07T02:22:55;7.03;;;2.60;;
59846;SDS011;45728;48.788;2.302;2024-01-07T02:25:24;2.75;;;1.02;;
59846;SDS011;45728;48.788;2.302;2024-01-07T02:27:50;3.17;;;1.05;;
59846;SDS011;45728;48.788;2.302;2024-01-07T02:30:16;5.40;;;2.47;;
59846;SDS011;45728;48.788;2.302;2024-01-07T02:32:43;6.05;;;2.40;;
59846;SDS011;45728;48.788;2.302;2024-01-07T02:35:09;6.40;;;2.22;;
59846;SDS011;45728;48.788;2.302;2024-01-07T02:37:35;3.72;;;1.42;;
59846;SDS011;45728;48.788;2.302;2024-01-07T02:40:01;9.65;;;2.28;;
59846;SDS011;45728;48.788;2.302;2024-01-07T02:42:27;1.65;;;0.90;;
59846;SDS011;45728;48.788;2.302;2024-01-07T02:44:53;1.75;;;0.68;;
59846;SDS011;45728;48.788;2.302;2024-01-07T02:47:19;5.72;;;2.40;;
59846;SDS011;45728;48.788;2.302;2024-01-07T02:49:45;4.13;;;2.00;;
59846;SDS011;45728;48.788;2.302;2024-01-07T02:52:11;10.85;;;1.23;;
59846;SDS011;45728;48.788;2.302;2024-01-07T02:54:37;6.50;;;2.08;;
59846;SDS011;45728;48.788;2.302;2024-01-07T02:57:03;6.90;;;2.38;;
59846;SDS011;45728;48.788;2.302;2024-01-07T02:59:29;5.03;;;2.42;;
59846;SDS011;45728;48.788;2.302;2024-01-07T03:01:56;6.60;;;2.60;;
59846;SDS011;45728;48.788;2.302;2024-01-07T03:04:22;5.63;;;2.30;;
59846;SDS011;45728;48.788;2.302;2024-01-07T03:06:48;3.80;;;1.20;;
59846;SDS011;45728;48.788;2.302;2024-01-07T03:09:14;7.07;;;2.78;;
59846;SDS011;45728;48.788;2.302;2024-01-07T03:11:40;5.80;;;2.30;;
59846;SDS011;45728;48.788;2.302;2024-01-07T03:14:09;7.00;;;2.55;;
59846;SDS011;45728;48.788;2.302;2024-01-07T03:16:35;10.70;;;2.60;;
59846;SDS011;45728;48.788;2.302;2024-01-07T03:19:01;5.55;;;1.52;;
59846;SDS011;45728;48.788;2.302;2024-01-07T03:21:28;5.90;;;2.20;;
59846;SDS011;45728;48.788;2.302;2024-01-07T03:23:55;6.68;;;2.67;;
59846;SDS011;45728;48.788;2.302;2024-01-07T03:26:21;1.67;;;0.82;;
59846;SDS011;45728;48.788;2.302;2024-01-07T03:28:47;8.18;;;2.67;;
59846;SDS011;45728;48.788;2.302;2024-01-07T03:31:14;3.90;;;1.70;;
59846;SDS011;45728;48.788;2.302;2024-01-07T03:33:41;7.05;;;2.50;;
59846;SDS011;45728;48.788;2.302;2024-01-07T03:36:09;4.82;;;2.30;;
59846;SDS011;45728;48.788;2.302;2024-01-07T03:38:36;1.40;;;1.10;;
59846;SDS011;45728;48.788;2.302;2024-01-07T03:41:03;7.10;;;2.10;;
59846;SDS011;45728;48.788;2.302;2024-01-07T03:43:29;3.88;;;1.27;;
59846;SDS011;45728;48.788;2.302;2024-01-07T03:45:55;4.72;;;1.08;;
59846;SDS011;45728;48.788;2.302;2024-01-07T03:48:21;1.52;;;0.82;;
59846;SDS011;45728;48.788;2.302;2024-01-07T03:50:47;5.40;;;2.30;;
59846;SDS011;45728;48.788;2.302;2024-01-07T03:53:14;5.93;;;1.20;;
59846;SDS011;45728;48.788;2.302;2024-01-07T03:55:40;4.95;;;2.25;;
59846;SDS011;45728;48.788;2.302;2024-01-07T03:58:06;3.50;;;1.02;;
59846;SDS011;45728;48.788;2.302;2024-01-07T04:00:33;8.02;;;2.30;;
59846;SDS011;45728;48.788;2.302;2024-01-07T04:03:00;4.70;;;2.10;;
59846;SDS011;45728;48.788;2.302;2024-01-07T04:05:26;6.05;;;2.10;;
59846;SDS011;45728;48.788;2.302;2024-01-07T04:07:52;5.70;;;1.13;;
59846;SDS011;45728;48.788;2.302;2024-01-07T04:10:18;8.25;;;2.13;;
59846;SDS011;45728;48.788;2.302;2024-01-07T04:12:45;7.60;;;2.15;;
59846;SDS011;45728;48.788;2.302;2024-01-07T04:15:11;5.85;;;2.22;;
59846;SDS011;45728;48.788;2.302;2024-01-07T04:17:37;3.42;;;1.00;;
59846;SDS011;45728;48.788;2.302;2024-01-07T04:20:04;1.15;;;0.73;;
59846;SDS011;45728;48.788;2.302;2024-01-07T04:22:31;7.25;;;2.45;;
59846;SDS011;45728;48.788;2.302;2024-01-07T04:24:57;3.90;;;1.00;;
59846;SDS011;45728;48.788;2.302;2024-01-07T04:27:23;2.88;;;1.23;;
59846;SDS011;45728;48.788;2.302;2024-01-07T04:29:50;11.88;;;2.35;;
59846;SDS011;45728;48.788;2.302;2024-01-07T04:32:16;1.30;;;0.70;;
59846;SDS011;45728;48.788;2.302;2024-01-07T04:34:43;3.47;;;1.10;;
59846;SDS011;45728;48.788;2.302;2024-01-07T04:37:09;10.55;;;2.45;;
59846;SDS011;45728;48.788;2.302;2024-01-07T04:39:35;3.22;;;0.93;;
59846;SDS011;45728;48.788;2.302;2024-01-07T04:42:01;1.65;;;0.80;;
59846;SDS011;45728;48.788;2.302;2024-01-07T04:44:27;2.10;;;1.33;;
59846;SDS011;45728;48.788;2.302;2024-01-07T04:46:53;3.92;;;1.13;;
59846;SDS011;45728;48.788;2.302;2024-01-07T04:49:19;2.33;;;1.58;;
59846;SDS011;45728;48.788;2.302;2024-01-07T04:51:45;5.10;;;2.22;;
59846;SDS011;45728;48.788;2.302;2024-01-07T04:54:11;5.38;;;2.20;;
59846;SDS011;45728;48.788;2.302;2024-01-07T04:56:37;7.00;;;2.80;;
59846;SDS011;45728;48.788;2.302;2024-01-07T04:59:03;2.50;;;1.35;;
59846;SDS011;45728;48.788;2.302;2024-01-07T05:01:29;5.43;;;1.92;;
59846;SDS011;45728;48.788;2.302;2024-01-07T05:03:57;7.97;;;2.63;;
59846;SDS011;45728;48.788;2.302;2024-01-07T05:06:23;8.77;;;3.13;;
59846;SDS011;45728;48.788;2.302;2024-01-07T05:08:49;1.80;;;1.10;;
59846;SDS011;45728;48.788;2.302;2024-01-07T05:11:15;7.60;;;2.78;;
59846;SDS011;45728;48.788;2.302;2024-01-07T05:13:42;6.43;;;2.42;;
59846;SDS011;45728;48.788;2.302;2024-01-07T05:16:08;8.45;;;1.17;;
59846;SDS011;45728;48.788;2.302;2024-01-07T05:18:34;3.58;;;1.17;;
59846;SDS011;45728;48.788;2.302;2024-01-07T05:21:00;7.47;;;1.08;;
59846;SDS011;45728;48.788;2.302;2024-01-07T05:23:26;6.07;;;1.15;;
59846;SDS011;45728;48.788;2.302;2024-01-07T05:25:52;8.00;;;1.20;;
59846;SDS011;45728;48.788;2.302;2024-01-07T05:28:18;2.55;;;1.27;;
59846;SDS011;45728;48.788;2.302;2024-01-07T05:30:46;9.15;;;2.78;;
59846;SDS011;45728;48.788;2.302;2024-01-07T05:33:12;2.70;;;1.00;;
59846;SDS011;45728;48.788;2.302;2024-01-07T05:35:38;9.10;;;3.05;;
59846;SDS011;45728;48.788;2.302;2024-01-07T05:38:04;2.38;;;1.23;;
59846;SDS011;45728;48.788;2.302;2024-01-07T05:40:30;3.55;;;1.38;;
59846;SDS011;45728;48.788;2.302;2024-01-07T05:42:56;7.47;;;2.70;;
59846;SDS011;45728;48.788;2.302;2024-01-07T05:45:22;6.38;;;2.55;;
59846;SDS011;45728;48.788;2.302;2024-01-07T05:47:48;3.75;;;1.08;;
59846;SDS011;45728;48.788;2.302;2024-01-07T05:50:14;6.70;;;2.78;;
59846;SDS011;45728;48.788;2.302;2024-01-07T05:52:42;5.22;;;2.42;;
59846;SDS011;45728;48.788;2.302;2024-01-07T05:55:08;2.15;;;1.17;;
59846;SDS011;45728;48.788;2.302;2024-01-07T05:57:34;6.22;;;1.75;;
59846;SDS011;45728;48.788;2.302;2024-01-07T06:00:01;1.48;;;0.93;;
59846;SDS011;45728;48.788;2.302;2024-01-07T06:02:27;8.90;;;3.10;;
59846;SDS011;45728;48.788;2.302;2024-01-07T06:04:53;2.03;;;1.02;;
59846;SDS011;45728;48.788;2.302;2024-01-07T06:07:19;4.10;;;1.17;;
59846;SDS011;45728;48.788;2.302;2024-01-07T06:09:45;5.35;;;2.90;;
59846;SDS011;45728;48.788;2.302;2024-01-07T06:12:11;2.67;;;1.02;;
59846;SDS011;45728;48.788;2.302;2024-01-07T06:14:37;4.82;;;2.67;;
59846;SDS011;45728;48.788;2.302;2024-01-07T06:17:03;3.70;;;1.40;;
59846;SDS011;45728;48.788;2.302;2024-01-07T06:19:29;6.25;;;3.33;;
59846;SDS011;45728;48.788;2.302;2024-01-07T06:21:55;7.25;;;3.10;;
59846;SDS011;45728;48.788;2.302;2024-01-07T06:24:22;3.92;;;1.58;;
59846;SDS011;45728;48.788;2.302;2024-01-07T06:26:48;5.25;;;2.80;;
59846;SDS011;45728;48.788;2.302;2024-01-07T06:29:14;6.97;;;1.60;;
59846;SDS011;45728;48.788;2.302;2024-01-07T06:31:43;7.10;;;3.15;;
59846;SDS011;45728;48.788;2.302;2024-01-07T06:34:10;7.55;;;3.17;;
59846;SDS011;45728;48.788;2.302;2024-01-07T06:36:39;3.28;;;1.35;;
59846;SDS011;45728;48.788;2.302;2024-01-07T06:39:07;7.47;;;3.30;;
59846;SDS011;45728;48.788;2.302;2024-01-07T06:41:34;5.53;;;3.40;;
59846;SDS011;45728;48.788;2.302;2024-01-07T06:44:01;6.55;;;2.00;;
59846;SDS011;45728;48.788;2.302;2024-01-07T06:46:27;3.42;;;1.73;;
59846;SDS011;45728;48.788;2.302;2024-01-07T06:48:53;5.38;;;1.33;;
59846;SDS011;45728;48.788;2.302;2024-01-07T06:51:19;6.65;;;1.48;;
59846;SDS011;45728;48.788;2.302;2024-01-07T06:53:45;3.15;;;1.15;;
59846;SDS011;45728;48.788;2.302;2024-01-07T06:56:12;5.03;;;1.52;;
59846;SDS011;45728;48.788;2.302;2024-01-07T06:58:39;6.47;;;2.53;;
59846;SDS011;45728;48.788;2.302;2024-01-07T07:01:07;6.80;;;1.88;;
59846;SDS011;45728;48.788;2.302;2024-01-07T07:03:33;8.35;;;2.53;;
59846;SDS011;45728;48.788;2.302;2024-01-07T07:05:59;8.38;;;3.60;;
59846;SDS011;45728;48.788;2.302;2024-01-07T07:08:25;4.22;;;1.27;;
59846;SDS011;45728;48.788;2.302;2024-01-07T07:10:52;4.18;;;1.88;;
59846;SDS011;45728;48.788;2.302;2024-01-07T07:13:18;7.40;;;3.40;;
59846;SDS011;45728;48.788;2.302;2024-01-07T07:15:44;3.05;;;1.33;;
59846;SDS011;45728;48.788;2.302;2024-01-07T07:18:10;8.38;;;1.50;;
59846;SDS011;45728;48.788;2.302;2024-01-07T07:20:36;3.05;;;1.45;;
59846;SDS011;45728;48.788;2.302;2024-01-07T07:23:02;10.75;;;3.67;;
59846;SDS011;45728;48.788;2.302;2024-01-07T07:25:28;4.75;;;3.20;;
59846;SDS011;45728;48.788;2.302;2024-01-07T07:27:54;2.67;;;1.50;;
59846;SDS011;45728;48.788;2.302;2024-01-07T07:30:21;2.35;;;1.33;;
59846;SDS011;45728;48.788;2.302;2024-01-07T07:32:47;2.95;;;1.42;;
59846;SDS011;45728;48.788;2.302;2024-01-07T07:35:13;5.68;;;1.33;;
59846;SDS011;45728;48.788;2.302;2024-01-07T07:37:40;2.75;;;0.98;;
59846;SDS011;45728;48.788;2.302;2024-01-07T07:40:06;3.20;;;1.52;;
59846;SDS011;45728;48.788;2.302;2024-01-07T07:42:32;3.53;;;1.30;;
59846;SDS011;45728;48.788;2.302;2024-01-07T07:44:58;4.75;;;1.42;;
59846;SDS011;45728;48.788;2.302;2024-01-07T07:47:24;6.82;;;3.45;;
59846;SDS011;45728;48.788;2.302;2024-01-07T07:49:50;7.15;;;3.90;;
59846;SDS011;45728;48.788;2.302;2024-01-07T07:52:16;5.93;;;1.83;;
59846;SDS011;45728;48.788;2.302;2024-01-07T07:54:47;4.03;;;2.00;;
59846;SDS011;45728;48.788;2.302;2024-01-07T07:57:13;5.55;;;1.83;;
59846;SDS011;45728;48.788;2.302;2024-01-07T07:59:39;5.25;;;2.03;;
59846;SDS011;45728;48.788;2.302;2024-01-07T08:02:05;4.85;;;1.77;;
59846;SDS011;45728;48.788;2.302;2024-01-07T08:04:31;2.95;;;1.70;;
59846;SDS011;45728;48.788;2.302;2024-01-07T08:06:57;3.20;;;1.73;;
59846;SDS011;45728;48.788;2.302;2024-01-07T08:09:25;5.00;;;1.80;;
59846;SDS011;45728;48.788;2.302;2024-01-07T08:11:51;6.13;;;4.68;;
59846;SDS011;45728;48.788;2.302;2024-01-07T08:14:17;3.97;;;2.22;;
59846;SDS011;45728;48.788;2.302;2024-01-07T08:16:43;7.43;;;3.15;;
59846;SDS011;45728;48.788;2.302;2024-01-07T08:19:09;7.72;;;2.72;;
59846;SDS011;45728;48.788;2.302;2024-01-07T08:21:35;4.18;;;2.55;;
59846;SDS011;45728;48.788;2.302;2024-01-07T08:24:01;5.90;;;2.88;;
59846;SDS011;45728;48.788;2.302;2024-01-07T08:26:29;6.55;;;2.50;;
59846;SDS011;45728;48.788;2.302;2024-01-07T08:28:55;7.63;;;5.10;;
59846;SDS011;45728;48.788;2.302;2024-01-07T08:31:21;4.78;;;2.47;;
59846;SDS011;45728;48.788;2.302;2024-01-07T08:33:47;7.88;;;5.70;;
59846;SDS011;45728;48.788;2.302;2024-01-07T08:36:13;4.47;;;2.10;;
59846;SDS011;45728;48.788;2.302;2024-01-07T08:38:39;7.18;;;5.07;;
59846;SDS011;45728;48.788;2.302;2024-01-07T08:41:05;6.10;;;2.58;;
59846;SDS011;45728;48.788;2.302;2024-01-07T08:43:31;8.60;;;2.78;;
59846;SDS011;45728;48.788;2.302;2024-01-07T08:45:57;2.85;;;1.33;;
59846;SDS011;45728;48.788;2.302;2024-01-07T08:48:23;7.20;;;5.43;;
59846;SDS011;45728;48.788;2.302;2024-01-07T08:50:49;8.98;;;5.55;;
59846;SDS011;45728;48.788;2.302;2024-01-07T08:53:16;4.88;;;2.65;;
59846;SDS011;45728;48.788;2.302;2024-01-07T08:55:42;8.85;;;5.13;;
59846;SDS011;45728;48.788;2.302;2024-01-07T08:58:08;2.78;;;2.15;;
59846;SDS011;45728;48.788;2.302;2024-01-07T09:00:34;5.88;;;5.20;;
59846;SDS011;45728;48.788;2.302;2024-01-07T09:03:00;7.05;;;2.40;;
59846;SDS011;45728;48.788;2.302;2024-01-07T09:05:26;9.07;;;5.85;;
59846;SDS011;45728;48.788;2.302;2024-01-07T09:07:52;9.40;;;5.15;;
59846;SDS011;45728;48.788;2.302;2024-01-07T09:10:18;6.28;;;3.20;;
59846;SDS011;45728;48.788;2.302;2024-01-07T09:12:44;9.95;;;2.90;;
59846;SDS011;45728;48.788;2.302;2024-01-07T09:15:11;6.93;;;5.63;;
59846;SDS011;45728;48.788;2.302;2024-01-07T09:17:37;5.65;;;3.08;;
59846;SDS011;45728;48.788;2.302;2024-01-07T09:20:04;6.00;;;3.40;;
59846;SDS011;45728;48.788;2.302;2024-01-07T09:22:33;10.30;;;6.50;;
59846;SDS011;45728;48.788;2.302;2024-01-07T09:25:03;9.75;;;3.70;;
59846;SDS011;45728;48.788;2.302;2024-01-07T09:27:29;7.35;;;4.78;;
59846;SDS011;45728;48.788;2.302;2024-01-07T09:29:56;7.13;;;3.50;;
59846;SDS011;45728;48.788;2.302;2024-01-07T09:32:22;6.93;;;2.70;;
59846;SDS011;45728;48.788;2.302;2024-01-07T09:34:48;9.63;;;6.35;;
59846;SDS011;45728;48.788;2.302;2024-01-07T09:37:14;6.20;;;3.25;;
59846;SDS011;45728;48.788;2.302;2024-01-07T09:39:40;5.40;;;2.67;;
59846;SDS011;45728;48.788;2.302;2024-01-07T09:42:13;6.28;;;2.42;;
59846;SDS011;45728;48.788;2.302;2024-01-07T09:44:44;11.70;;;6.43;;
59846;SDS011;45728;48.788;2.302;2024-01-07T09:47:10;5.47;;;3.60;;
59846;SDS011;45728;48.788;2.302;2024-01-07T09:49:38;8.48;;;6.88;;
59846;SDS011;45728;48.788;2.302;2024-01-07T09:52:05;6.10;;;3.28;;
59846;SDS011;45728;48.788;2.302;2024-01-07T09:54:32;5.90;;;3.63;;
59846;SDS011;45728;48.788;2.302;2024-01-07T09:57:02;7.70;;;3.40;;
59846;SDS011;45728;48.788;2.302;2024-01-07T09:59:29;9.63;;;4.55;;
59846;SDS011;45728;48.788;2.302;2024-01-07T10:01:55;10.88;;;8.43;;
59846;SDS011;45728;48.788;2.302;2024-01-07T10:04:24;6.72;;;3.17;;
59846;SDS011;45728;48.788;2.302;2024-01-07T10:06:51;11.07;;;8.70;;
59846;SDS011;45728;48.788;2.302;2024-01-07T10:09:29;11.38;;;9.02;;
59846;SDS011;45728;48.788;2.302;2024-01-07T10:11:58;7.88;;;4.15;;
59846;SDS011;45728;48.788;2.302;2024-01-07T10:14:24;7.55;;;3.45;;
59846;SDS011;45728;48.788;2.302;2024-01-07T10:16:51;11.13;;;4.35;;
59846;SDS011;45728;48.788;2.302;2024-01-07T10:19:21;8.60;;;4.00;;
59846;SDS011;45728;48.788;2.302;2024-01-07T10:22:04;8.70;;;4.47;;
59846;SDS011;45728;48.788;2.302;2024-01-07T10:24:37;12.98;;;10.27;;
59846;SDS011;45728;48.788;2.302;2024-01-07T10:27:05;10.52;;;4.93;;
59846;SDS011;45728;48.788;2.302;2024-01-07T10:29:32;6.78;;;3.83;;
59846;SDS011;45728;48.788;2.302;2024-01-07T10:31:59;11.05;;;8.93;;
59846;SDS011;45728;48.788;2.302;2024-01-07T10:34:30;6.75;;;3.28;;
59846;SDS011;45728;48.788;2.302;2024-01-07T10:36:58;7.63;;;4.15;;
59846;SDS011;45728;48.788;2.302;2024-01-07T10:39:25;5.60;;;3.35;;
59846;SDS011;45728;48.788;2.302;2024-01-07T10:41:51;7.80;;;4.22;;
59846;SDS011;45728;48.788;2.302;2024-01-07T10:44:22;8.13;;;4.20;;
59846;SDS011;45728;48.788;2.302;2024-01-07T10:46:50;11.95;;;9.43;;
59846;SDS011;45728;48.788;2.302;2024-01-07T10:49:19;11.55;;;9.63;;
59846;SDS011;45728;48.788;2.302;2024-01-07T10:51:48;10.48;;;5.60;;
59846;SDS011;45728;48.788;2.302;2024-01-07T10:54:31;9.15;;;4.85;;
59846;SDS011;45728;48.788;2.302;2024-01-07T10:56:59;12.40;;;10.00;;
59846;SDS011;45728;48.788;2.302;2024-01-07T10:59:50;10.90;;;5.35;;
59846;SDS011;45728;48.788;2.302;2024-01-07T11:02:18;10.70;;;4.90;;
59846;SDS011;45728;48.788;2.302;2024-01-07T11:07:44;11.40;;;5.07;;
59846;SDS011;45728;48.788;2.302;2024-01-07T11:10:16;12.68;;;10.38;;
59846;SDS011;45728;48.788;2.302;2024-01-07T11:13:04;14.35;;;10.65;;
59846;SDS011;45728;48.788;2.302;2024-01-07T11:18:19;8.75;;;5.30;;
59846;SDS011;45728;48.788;2.302;2024-01-07T11:20:49;13.45;;;5.82;;
59846;SDS011;45728;48.788;2.302;2024-01-07T11:23:34;12.40;;;10.65;;
59846;SDS011;45728;48.788;2.302;2024-01-07T11:26:07;11.45;;;6.32;;
59846;SDS011;45728;48.788;2.302;2024-01-07T11:31:12;8.30;;;4.43;;
59846;SDS011;45728;48.788;2.302;2024-01-07T11:33:41;9.45;;;5.30;;
59846;SDS011;45728;48.788;2.302;2024-01-07T11:36:08;13.13;;;11.53;;
59846;SDS011;45728;48.788;2.302;2024-01-07T11:38:37;10.05;;;4.90;;
59846;SDS011;45728;48.788;2.302;2024-01-07T11:41:05;9.82;;;5.95;;
59846;SDS011;45728;48.788;2.302;2024-01-07T11:43:32;10.55;;;6.10;;
59846;SDS011;45728;48.788;2.302;2024-01-07T11:46:00;16.13;;;13.55;;
59846;SDS011;45728;48.788;2.302;2024-01-07T11:48:26;13.63;;;6.95;;
59846;SDS011;45728;48.788;2.302;2024-01-07T11:50:52;9.55;;;5.20;;
59846;SDS011;45728;48.788;2.302;2024-01-07T11:53:19;13.63;;;8.32;;
59846;SDS011;45728;48.788;2.302;2024-01-07T11:55:45;19.10;;;15.93;;
59846;SDS011;45728;48.788;2.302;2024-01-07T11:58:12;15.45;;;7.57;;
59846;SDS011;45728;48.788;2.302;2024-01-07T12:00:38;20.80;;;8.50;;
59846;SDS011;45728;48.788;2.302;2024-01-07T12:03:04;15.82;;;7.13;;
59846;SDS011;45728;48.788;2.302;2024-01-07T12:05:30;23.35;;;18.15;;
59846;SDS011;45728;48.788;2.302;2024-01-07T12:07:56;14.20;;;6.68;;
59846;SDS011;45728;48.788;2.302;2024-01-07T12:10:23;17.33;;;8.30;;
59846;SDS011;45728;48.788;2.302;2024-01-07T12:12:49;21.10;;;10.05;;
59846;SDS011;45728;48.788;2.302;2024-01-07T12:15:19;13.18;;;7.72;;
59846;SDS011;45728;48.788;2.302;2024-01-07T12:17:55;20.02;;;7.25;;
59846;SDS011;45728;48.788;2.302;2024-01-07T12:20:23;24.45;;;19.85;;
59846;SDS011;45728;48.788;2.302;2024-01-07T12:22:49;17.85;;;7.75;;
59846;SDS011;45728;48.788;2.302;2024-01-07T12:25:20;17.65;;;8.25;;
59846;SDS011;45728;48.788;2.302;2024-01-07T12:27:50;27.90;;;21.55;;
59846;SDS011;45728;48.788;2.302;2024-01-07T12:30:20;18.45;;;9.30;;
59846;SDS011;45728;48.788;2.302;2024-01-07T12:32:46;14.93;;;7.95;;
59846;SDS011;45728;48.788;2.302;2024-01-07T12:35:13;26.77;;;10.40;;
59846;SDS011;45728;48.788;2.302;2024-01-07T12:37:39;19.70;;;10.07;;
59846;SDS011;45728;48.788;2.302;2024-01-07T12:40:05;29.48;;;15.32;;
59846;SDS011;45728;48.788;2.302;2024-01-07T12:42:34;27.42;;;21.55;;
59846;SDS011;45728;48.788;2.302;2024-01-07T12:45:00;21.33;;;10.07;;
59846;SDS011;45728;48.788;2.302;2024-01-07T12:47:26;17.15;;;7.88;;
59846;SDS011;45728;48.788;2.302;2024-01-07T12:49:52;14.40;;;7.15;;
59846;SDS011;45728;48.788;2.302;2024-01-07T12:52:18;16.20;;;7.60;;
59846;SDS011;45728;48.788;2.302;2024-01-07T12:54:44;16.20;;;7.82;;
59846;SDS011;45728;48.788;2.302;2024-01-07T12:57:12;16.40;;;8.05;;
59846;SDS011;45728;48.788;2.302;2024-01-07T12:59:38;29.55;;;23.45;;
59846;SDS011;45728;48.788;2.302;2024-01-07T13:02:04;24.33;;;10.82;;
59846;SDS011;45728;48.788;2.302;2024-01-07T13:04:30;23.10;;;10.13;;
59846;SDS011;45728;48.788;2.302;2024-01-07T13:06:57;21.60;;;10.70;;
59846;SDS011;45728;48.788;2.302;2024-01-07T13:09:23;24.52;;;11.50;;
59846;SDS011;45728;48.788;2.302;2024-01-07T13:11:49;25.10;;;12.40;;
59846;SDS011;45728;48.788;2.302;2024-01-07T13:14:15;19.75;;;9.20;;
59846;SDS011;45728;48.788;2.302;2024-01-07T13:16:41;23.80;;;10.07;;
59846;SDS011;45728;48.788;2.302;2024-01-07T13:19:07;21.58;;;9.85;;
59846;SDS011;45728;48.788;2.302;2024-01-07T13:21:36;29.60;;;24.30;;
59846;SDS011;45728;48.788;2.302;2024-01-07T13:24:04;29.77;;;24.20;;
59846;SDS011;45728;48.788;2.302;2024-01-07T13:26:30;22.98;;;10.73;;
59846;SDS011;45728;48.788;2.302;2024-01-07T13:28:56;21.17;;;8.82;;
59846;SDS011;45728;48.788;2.302;2024-01-07T13:31:22;24.55;;;11.27;;
59846;SDS011;45728;48.788;2.302;2024-01-07T13:33:49;26.52;;;22.60;;
59846;SDS011;45728;48.788;2.302;2024-01-07T13:36:15;17.73;;;8.50;;
59846;SDS011;45728;48.788;2.302;2024-01-07T13:38:41;21.63;;;9.45;;
59846;SDS011;45728;48.788;2.302;2024-01-07T13:41:08;31.70;;;25.40;;
59846;SDS011;45728;48.788;2.302;2024-01-07T13:43:34;23.38;;;9.90;;
59846;SDS011;45728;48.788;2.302;2024-01-07T13:46:00;26.83;;;11.50;;
59846;SDS011;45728;48.788;2.302;2024-01-07T13:48:27;17.92;;;8.60;;
59846;SDS011;45728;48.788;2.302;2024-01-07T13:50:54;20.58;;;9.25;;
59846;SDS011;45728;48.788;2.302;2024-01-07T13:53:21;20.98;;;9.70;;
59846;SDS011;45728;48.788;2.302;2024-01-07T13:55:47;27.30;;;22.10;;
59846;SDS011;45728;48.788;2.302;2024-01-07T13:58:13;16.42;;;8.18;;
59846;SDS011;45728;48.788;2.302;2024-01-07T14:00:40;21.38;;;11.10;;
59846;SDS011;45728;48.788;2.302;2024-01-07T14:03:07;17.20;;;7.78;;
59846;SDS011;45728;48.788;2.302;2024-01-07T14:05:33;24.38;;;10.02;;
59846;SDS011;45728;48.788;2.302;2024-01-07T14:07:59;20.20;;;9.05;;
59846;SDS011;45728;48.788;2.302;2024-01-07T14:10:26;14.77;;;7.30;;
59846;SDS011;45728;48.788;2.302;2024-01-07T14:12:52;16.80;;;8.90;;
59846;SDS011;45728;48.788;2.302;2024-01-07T14:15:18;13.10;;;6.55;;
59846;SDS011;45728;48.788;2.302;2024-01-07T14:17:44;16.30;;;8.23;;
59846;SDS011;45728;48.788;2.302;2024-01-07T14:20:10;19.75;;;9.55;;
59846;SDS011;45728;48.788;2.302;2024-01-07T14:22:36;16.33;;;8.40;;
59846;SDS011;45728;48.788;2.302;2024-01-07T14:25:02;20.27;;;9.35;;
59846;SDS011;45728;48.788;2.302;2024-01-07T14:27:29;17.83;;;8.60;;
59846;SDS011;45728;48.788;2.302;2024-01-07T14:29:55;19.27;;;9.77;;
59846;SDS011;45728;48.788;2.302;2024-01-07T14:32:22;14.27;;;6.60;;
59846;SDS011;45728;48.788;2.302;2024-01-07T14:34:48;17.23;;;8.25;;
59846;SDS011;45728;48.788;2.302;2024-01-07T14:37:15;23.75;;;10.88;;
59846;SDS011;45728;48.788;2.302;2024-01-07T14:39:42;25.73;;;22.52;;
59846;SDS011;45728;48.788;2.302;2024-01-07T14:42:08;18.40;;;9.48;;
59846;SDS011;45728;48.788;2.302;2024-01-07T14:44:34;18.88;;;8.65;;
59846;SDS011;45728;48.788;2.302;2024-01-07T14:47:00;19.20;;;9.85;;
59846;SDS011;45728;48.788;2.302;2024-01-07T14:49:26;21.27;;;11.13;;